sensor_id;sensor_type;location;lat;lon;timestamp;P1;durP1;ratioP1;P2;durP2;ratioP2
35795;SDS011;21916;52.428;13.302;2022-12-19T00:00:20;44.95;;;20.25;;
35795;SDS011;21916;52.428;13.302;2022-12-19T00:02:46;50.30;;;20.40;;
35795;SDS011;21916;52.428;13.302;2022-12-19T00:05:11;45.38;;;18.92;;
35795;SDS011;21916;52.428;13.302;2022-12-19T00:07:38;50.65;;;20.77;;
35795;SDS011;21916;52.428;13.302;2022-12-19T00:10:04;49.72;;;19.92;;
35795;SDS011;21916;52.428;13.302;2022-12-19T00:12:30;46.88;;;18.77;;
35795;SDS011;21916;52.428;13.302;2022-12-19T00:14:56;41.38;;;17.75;;
35795;SDS011;21916;52.428;13.302;2022-12-19T00:17:22;44.03;;;18.65;;
35795;SDS011;21916;52.428;13.302;2022-12-19T00:19:48;46.70;;;19.60;;
35795;SDS011;21916;52.428;13.302;2022-12-19T00:22:14;51.47;;;20.95;;
35795;SDS011;21916;52.428;13.302;2022-12-19T00:24:42;48.80;;;19.90;;
35795;SDS011;21916;52.428;13.302;2022-12-19T00:27:08;46.45;;;21.83;;
35795;SDS011;21916;52.428;13.302;2022-12-19T00:29:34;50.72;;;20.60;;
35795;SDS011;21916;52.428;13.302;2022-12-19T00:32:00;47.90;;;19.88;;
35795;SDS011;21916;52.428;13.302;2022-12-19T00:34:26;50.88;;;19.23;;
35795;SDS011;21916;52.428;13.302;2022-12-19T00:36:51;50.95;;;21.55;;
35795;SDS011;21916;52.428;13.302;2022-12-19T00:39:17;45.55;;;18.17;;
35795;SDS011;21916;52.428;13.302;2022-12-19T00:41:44;44.08;;;20.17;;
35795;SDS011;21916;52.428;13.302;2022-12-19T00:44:11;39.45;;;16.05;;
35795;SDS011;21916;52.428;13.302;2022-12-19T00:46:38;50.42;;;20.58;;
35795;SDS011;21916;52.428;13.302;2022-12-19T00:49:03;47.35;;;19.25;;
35795;SDS011;21916;52.428;13.302;2022-12-19T00:51:31;45.83;;;18.98;;
35795;SDS011;21916;52.428;13.302;2022-12-19T00:53:58;50.03;;;18.52;;
35795;SDS011;21916;52.428;13.302;2022-12-19T00:56:28;50.17;;;18.63;;
35795;SDS011;21916;52.428;13.302;2022-12-19T00:58:57;35.42;;;16.30;;
35795;SDS011;21916;52.428;13.302;2022-12-19T01:01:25;47.35;;;19.30;;
35795;SDS011;21916;52.428;13.302;2022-12-19T01:03:53;46.50;;;17.30;;
35795;SDS011;21916;52.428;13.302;2022-12-19T01:06:21;39.78;;;18.85;;
35795;SDS011;21916;52.428;13.302;2022-12-19T01:08:47;47.10;;;18.13;;
35795;SDS011;21916;52.428;13.302;2022-12-19T01:11:13;41.15;;;17.13;;
35795;SDS011;21916;52.428;13.302;2022-12-19T01:13:39;40.00;;;17.40;;
35795;SDS011;21916;52.428;13.302;2022-12-19T01:16:11;36.53;;;16.08;;
35795;SDS011;21916;52.428;13.302;2022-12-19T01:18:38;43.65;;;17.70;;
35795;SDS011;21916;52.428;13.302;2022-12-19T01:21:05;37.75;;;16.60;;
35795;SDS011;21916;52.428;13.302;2022-12-19T01:23:32;37.70;;;16.67;;
35795;SDS011;21916;52.428;13.302;2022-12-19T01:25:59;46.15;;;17.52;;
35795;SDS011;21916;52.428;13.302;2022-12-19T01:28:25;39.97;;;17.40;;
35795;SDS011;21916;52.428;13.302;2022-12-19T01:30:51;35.05;;;15.70;;
35795;SDS011;21916;52.428;13.302;2022-12-19T01:33:18;40.15;;;17.40;;
35795;SDS011;21916;52.428;13.302;2022-12-19T01:35:46;33.60;;;15.85;;
35795;SDS011;21916;52.428;13.302;2022-12-19T01:38:17;40.08;;;16.73;;
35795;SDS011;21916;52.428;13.302;2022-12-19T01:40:48;40.08;;;16.92;;
35795;SDS011;21916;52.428;13.302;2022-12-19T01:43:18;38.10;;;15.65;;
35795;SDS011;21916;52.428;13.302;2022-12-19T01:45:48;38.97;;;16.45;;
35795;SDS011;21916;52.428;13.302;2022-12-19T01:51:10;37.42;;;15.73;;
35795;SDS011;21916;52.428;13.302;2022-12-19T01:53:42;41.33;;;15.60;;
35795;SDS011;21916;52.428;13.302;2022-12-19T01:56:10;34.13;;;14.85;;
35795;SDS011;21916;52.428;13.302;2022-12-19T01:58:37;39.85;;;15.98;;
35795;SDS011;21916;52.428;13.302;2022-12-19T02:01:06;40.67;;;16.42;;
35795;SDS011;21916;52.428;13.302;2022-12-19T02:03:33;31.20;;;14.20;;
35795;SDS011;21916;52.428;13.302;2022-12-19T02:06:01;38.10;;;15.35;;
35795;SDS011;21916;52.428;13.302;2022-12-19T02:08:29;43.28;;;16.20;;
35795;SDS011;21916;52.428;13.302;2022-12-19T02:10:58;36.45;;;14.95;;
35795;SDS011;21916;52.428;13.302;2022-12-19T02:13:24;43.05;;;16.13;;
35795;SDS011;21916;52.428;13.302;2022-12-19T02:22:02;33.38;;;13.95;;
35795;SDS011;21916;52.428;13.302;2022-12-19T02:30:15;40.42;;;17.65;;
35795;SDS011;21916;52.428;13.302;2022-12-19T02:33:04;47.95;;;17.42;;
35795;SDS011;21916;52.428;13.302;2022-12-19T02:35:51;44.97;;;17.50;;
35795;SDS011;21916;52.428;13.302;2022-12-19T02:38:30;36.60;;;16.92;;
35795;SDS011;21916;52.428;13.302;2022-12-19T02:41:48;43.90;;;17.27;;
35795;SDS011;21916;52.428;13.302;2022-12-19T02:44:14;44.03;;;18.20;;
35795;SDS011;21916;52.428;13.302;2022-12-19T02:46:46;40.95;;;17.55;;
35795;SDS011;21916;52.428;13.302;2022-12-19T02:49:14;45.50;;;18.40;;
35795;SDS011;21916;52.428;13.302;2022-12-19T02:51:40;39.28;;;17.42;;
35795;SDS011;21916;52.428;13.302;2022-12-19T02:54:07;42.20;;;16.67;;
35795;SDS011;21916;52.428;13.302;2022-12-19T02:56:48;37.45;;;17.38;;
35795;SDS011;21916;52.428;13.302;2022-12-19T03:07:55;46.00;;;18.85;;
35795;SDS011;21916;52.428;13.302;2022-12-19T03:15:54;43.80;;;18.65;;
35795;SDS011;21916;52.428;13.302;2022-12-19T03:18:20;46.40;;;19.15;;
35795;SDS011;21916;52.428;13.302;2022-12-19T03:23:15;49.92;;;20.05;;
35795;SDS011;21916;52.428;13.302;2022-12-19T03:25:42;42.42;;;19.23;;
35795;SDS011;21916;52.428;13.302;2022-12-19T03:28:12;43.30;;;18.17;;
35795;SDS011;21916;52.428;13.302;2022-12-19T03:30:45;47.00;;;20.02;;
35795;SDS011;21916;52.428;13.302;2022-12-19T03:33:12;43.13;;;18.83;;
35795;SDS011;21916;52.428;13.302;2022-12-19T03:35:39;42.08;;;17.95;;
35795;SDS011;21916;52.428;13.302;2022-12-19T03:38:07;46.63;;;19.83;;
35795;SDS011;21916;52.428;13.302;2022-12-19T03:40:36;47.53;;;20.48;;
35795;SDS011;21916;52.428;13.302;2022-12-19T03:43:04;43.67;;;19.60;;
35795;SDS011;21916;52.428;13.302;2022-12-19T03:46:09;47.67;;;19.13;;
35795;SDS011;21916;52.428;13.302;2022-12-19T03:48:43;43.38;;;18.90;;
35795;SDS011;21916;52.428;13.302;2022-12-19T03:59:07;47.60;;;20.02;;
35795;SDS011;21916;52.428;13.302;2022-12-19T04:01:40;45.58;;;19.98;;
35795;SDS011;21916;52.428;13.302;2022-12-19T04:04:06;44.67;;;19.92;;
35795;SDS011;21916;52.428;13.302;2022-12-19T04:06:34;38.60;;;18.38;;
35795;SDS011;21916;52.428;13.302;2022-12-19T04:09:01;47.15;;;20.88;;
35795;SDS011;21916;52.428;13.302;2022-12-19T04:11:29;44.13;;;20.45;;
35795;SDS011;21916;52.428;13.302;2022-12-19T04:14:01;44.15;;;20.15;;
35795;SDS011;21916;52.428;13.302;2022-12-19T04:19:10;53.67;;;21.00;;
35795;SDS011;21916;52.428;13.302;2022-12-19T04:21:43;47.53;;;19.67;;
35795;SDS011;21916;52.428;13.302;2022-12-19T04:24:26;44.70;;;19.60;;
35795;SDS011;21916;52.428;13.302;2022-12-19T04:26:57;46.63;;;20.65;;
35795;SDS011;21916;52.428;13.302;2022-12-19T04:29:25;46.13;;;19.10;;
35795;SDS011;21916;52.428;13.302;2022-12-19T04:31:55;56.20;;;20.58;;
35795;SDS011;21916;52.428;13.302;2022-12-19T04:34:21;49.83;;;21.42;;
35795;SDS011;21916;52.428;13.302;2022-12-19T04:36:47;48.33;;;20.23;;
35795;SDS011;21916;52.428;13.302;2022-12-19T04:39:15;44.88;;;20.20;;
35795;SDS011;21916;52.428;13.302;2022-12-19T04:41:40;45.75;;;20.23;;
35795;SDS011;21916;52.428;13.302;2022-12-19T04:44:06;47.42;;;18.63;;
35795;SDS011;21916;52.428;13.302;2022-12-19T04:46:32;53.20;;;22.35;;
35795;SDS011;21916;52.428;13.302;2022-12-19T04:48:58;48.25;;;20.00;;
35795;SDS011;21916;52.428;13.302;2022-12-19T04:51:24;41.45;;;18.67;;
35795;SDS011;21916;52.428;13.302;2022-12-19T04:53:49;48.45;;;20.13;;
35795;SDS011;21916;52.428;13.302;2022-12-19T04:56:15;44.72;;;19.35;;
35795;SDS011;21916;52.428;13.302;2022-12-19T04:58:41;47.80;;;19.85;;
35795;SDS011;21916;52.428;13.302;2022-12-19T05:01:07;45.15;;;20.38;;
35795;SDS011;21916;52.428;13.302;2022-12-19T05:03:34;52.05;;;19.80;;
35795;SDS011;21916;52.428;13.302;2022-12-19T05:06:11;44.67;;;18.95;;
35795;SDS011;21916;52.428;13.302;2022-12-19T05:08:39;46.30;;;19.75;;
35795;SDS011;21916;52.428;13.302;2022-12-19T05:11:07;46.28;;;21.02;;
35795;SDS011;21916;52.428;13.302;2022-12-19T05:13:34;49.10;;;20.52;;
35795;SDS011;21916;52.428;13.302;2022-12-19T05:16:04;44.35;;;20.80;;
35795;SDS011;21916;52.428;13.302;2022-12-19T05:18:32;45.03;;;20.27;;
35795;SDS011;21916;52.428;13.302;2022-12-19T05:20:58;46.85;;;20.50;;
35795;SDS011;21916;52.428;13.302;2022-12-19T05:23:25;51.80;;;21.23;;
35795;SDS011;21916;52.428;13.302;2022-12-19T05:25:51;44.88;;;20.80;;
35795;SDS011;21916;52.428;13.302;2022-12-19T05:28:17;45.58;;;20.67;;
35795;SDS011;21916;52.428;13.302;2022-12-19T05:30:44;46.75;;;19.60;;
35795;SDS011;21916;52.428;13.302;2022-12-19T05:33:10;46.80;;;20.92;;
35795;SDS011;21916;52.428;13.302;2022-12-19T05:35:36;50.83;;;22.90;;
35795;SDS011;21916;52.428;13.302;2022-12-19T05:38:02;51.90;;;21.40;;
35795;SDS011;21916;52.428;13.302;2022-12-19T05:40:28;50.08;;;20.92;;
35795;SDS011;21916;52.428;13.302;2022-12-19T05:42:54;47.22;;;19.48;;
35795;SDS011;21916;52.428;13.302;2022-12-19T05:45:20;43.53;;;19.60;;
35795;SDS011;21916;52.428;13.302;2022-12-19T05:47:46;44.80;;;20.58;;
35795;SDS011;21916;52.428;13.302;2022-12-19T05:50:13;45.03;;;20.77;;
35795;SDS011;21916;52.428;13.302;2022-12-19T05:52:40;46.95;;;21.48;;
35795;SDS011;21916;52.428;13.302;2022-12-19T05:55:06;40.72;;;17.88;;
35795;SDS011;21916;52.428;13.302;2022-12-19T05:57:33;48.40;;;20.52;;
35795;SDS011;21916;52.428;13.302;2022-12-19T05:59:59;46.28;;;18.63;;
35795;SDS011;21916;52.428;13.302;2022-12-19T06:02:25;44.83;;;19.55;;
35795;SDS011;21916;52.428;13.302;2022-12-19T06:04:51;47.83;;;21.17;;
35795;SDS011;21916;52.428;13.302;2022-12-19T06:07:17;46.00;;;19.73;;
35795;SDS011;21916;52.428;13.302;2022-12-19T06:09:43;43.92;;;19.45;;
35795;SDS011;21916;52.428;13.302;2022-12-19T06:12:09;46.42;;;21.58;;
35795;SDS011;21916;52.428;13.302;2022-12-19T06:14:35;45.85;;;21.23;;
35795;SDS011;21916;52.428;13.302;2022-12-19T06:17:00;51.70;;;20.50;;
35795;SDS011;21916;52.428;13.302;2022-12-19T06:19:26;45.90;;;20.85;;
35795;SDS011;21916;52.428;13.302;2022-12-19T06:21:52;49.30;;;19.33;;
35795;SDS011;21916;52.428;13.302;2022-12-19T06:24:18;43.25;;;20.15;;
35795;SDS011;21916;52.428;13.302;2022-12-19T06:26:44;45.45;;;22.10;;
35795;SDS011;21916;52.428;13.302;2022-12-19T06:29:10;45.50;;;19.00;;
35795;SDS011;21916;52.428;13.302;2022-12-19T06:31:36;45.10;;;19.27;;
35795;SDS011;21916;52.428;13.302;2022-12-19T06:34:01;54.45;;;20.88;;
35795;SDS011;21916;52.428;13.302;2022-12-19T06:36:28;47.38;;;20.10;;
35795;SDS011;21916;52.428;13.302;2022-12-19T06:38:55;43.33;;;19.35;;
35795;SDS011;21916;52.428;13.302;2022-12-19T06:41:22;44.35;;;20.27;;
35795;SDS011;21916;52.428;13.302;2022-12-19T06:44:07;40.72;;;19.75;;
35795;SDS011;21916;52.428;13.302;2022-12-19T06:46:35;50.67;;;20.25;;
35795;SDS011;21916;52.428;13.302;2022-12-19T06:49:01;47.92;;;21.65;;
35795;SDS011;21916;52.428;13.302;2022-12-19T06:51:27;43.85;;;18.17;;
35795;SDS011;21916;52.428;13.302;2022-12-19T06:53:53;46.13;;;19.85;;
35795;SDS011;21916;52.428;13.302;2022-12-19T06:56:19;36.63;;;17.13;;
35795;SDS011;21916;52.428;13.302;2022-12-19T06:58:45;43.92;;;19.42;;
35795;SDS011;21916;52.428;13.302;2022-12-19T07:01:15;43.80;;;19.08;;
35795;SDS011;21916;52.428;13.302;2022-12-19T07:03:42;43.65;;;17.45;;
35795;SDS011;21916;52.428;13.302;2022-12-19T07:06:10;38.85;;;17.92;;
35795;SDS011;21916;52.428;13.302;2022-12-19T07:08:36;42.50;;;18.42;;
35795;SDS011;21916;52.428;13.302;2022-12-19T07:11:02;41.60;;;18.90;;
35795;SDS011;21916;52.428;13.302;2022-12-19T07:13:27;36.08;;;16.40;;
35795;SDS011;21916;52.428;13.302;2022-12-19T07:15:53;38.72;;;17.50;;
35795;SDS011;21916;52.428;13.302;2022-12-19T07:18:24;42.40;;;19.42;;
35795;SDS011;21916;52.428;13.302;2022-12-19T07:20:50;42.25;;;18.10;;
35795;SDS011;21916;52.428;13.302;2022-12-19T07:23:17;39.22;;;18.63;;
35795;SDS011;21916;52.428;13.302;2022-12-19T07:25:44;36.40;;;17.65;;
35795;SDS011;21916;52.428;13.302;2022-12-19T07:28:10;42.30;;;18.65;;
35795;SDS011;21916;52.428;13.302;2022-12-19T07:30:37;38.67;;;18.00;;
35795;SDS011;21916;52.428;13.302;2022-12-19T07:33:02;45.42;;;19.00;;
35795;SDS011;21916;52.428;13.302;2022-12-19T07:35:28;43.15;;;17.67;;
35795;SDS011;21916;52.428;13.302;2022-12-19T07:37:59;41.05;;;18.38;;
35795;SDS011;21916;52.428;13.302;2022-12-19T07:40:26;45.10;;;18.30;;
35795;SDS011;21916;52.428;13.302;2022-12-19T07:42:52;40.50;;;17.60;;
35795;SDS011;21916;52.428;13.302;2022-12-19T07:45:18;41.47;;;17.58;;
35795;SDS011;21916;52.428;13.302;2022-12-19T07:47:44;40.47;;;17.05;;
35795;SDS011;21916;52.428;13.302;2022-12-19T07:50:09;44.58;;;18.20;;
35795;SDS011;21916;52.428;13.302;2022-12-19T07:52:35;45.05;;;19.10;;
35795;SDS011;21916;52.428;13.302;2022-12-19T07:55:01;34.72;;;17.52;;
35795;SDS011;21916;52.428;13.302;2022-12-19T07:57:27;36.30;;;17.17;;
35795;SDS011;21916;52.428;13.302;2022-12-19T07:59:53;40.83;;;18.88;;
35795;SDS011;21916;52.428;13.302;2022-12-19T08:02:19;34.65;;;16.70;;
35795;SDS011;21916;52.428;13.302;2022-12-19T08:04:44;35.03;;;16.80;;
35795;SDS011;21916;52.428;13.302;2022-12-19T08:07:10;36.05;;;16.95;;
35795;SDS011;21916;52.428;13.302;2022-12-19T08:09:36;47.00;;;17.45;;
35795;SDS011;21916;52.428;13.302;2022-12-19T08:12:02;42.83;;;18.25;;
35795;SDS011;21916;52.428;13.302;2022-12-19T08:14:28;40.45;;;18.52;;
35795;SDS011;21916;52.428;13.302;2022-12-19T08:16:54;39.00;;;16.60;;
35795;SDS011;21916;52.428;13.302;2022-12-19T08:19:20;44.97;;;18.20;;
35795;SDS011;21916;52.428;13.302;2022-12-19T08:21:46;37.88;;;17.52;;
35795;SDS011;21916;52.428;13.302;2022-12-19T08:24:12;41.88;;;17.45;;
35795;SDS011;21916;52.428;13.302;2022-12-19T08:26:37;40.88;;;17.13;;
35795;SDS011;21916;52.428;13.302;2022-12-19T08:29:03;31.92;;;15.27;;
35795;SDS011;21916;52.428;13.302;2022-12-19T08:31:29;37.05;;;16.63;;
35795;SDS011;21916;52.428;13.302;2022-12-19T08:33:55;39.72;;;17.48;;
35795;SDS011;21916;52.428;13.302;2022-12-19T08:36:24;38.78;;;17.75;;
35795;SDS011;21916;52.428;13.302;2022-12-19T08:38:50;41.22;;;17.95;;
35795;SDS011;21916;52.428;13.302;2022-12-19T08:41:16;38.03;;;16.88;;
35795;SDS011;21916;52.428;13.302;2022-12-19T08:43:46;42.75;;;18.95;;
35795;SDS011;21916;52.428;13.302;2022-12-19T08:46:19;36.95;;;16.52;;
35795;SDS011;21916;52.428;13.302;2022-12-19T08:48:45;37.80;;;16.45;;
35795;SDS011;21916;52.428;13.302;2022-12-19T08:51:12;38.22;;;16.80;;
35795;SDS011;21916;52.428;13.302;2022-12-19T08:53:39;38.03;;;16.75;;
35795;SDS011;21916;52.428;13.302;2022-12-19T08:56:07;36.33;;;16.15;;
35795;SDS011;21916;52.428;13.302;2022-12-19T08:58:36;40.83;;;17.17;;
35795;SDS011;21916;52.428;13.302;2022-12-19T09:01:03;40.20;;;16.63;;
35795;SDS011;21916;52.428;13.302;2022-12-19T09:03:33;37.38;;;17.00;;
35795;SDS011;21916;52.428;13.302;2022-12-19T09:05:59;33.63;;;16.08;;
35795;SDS011;21916;52.428;13.302;2022-12-19T09:08:27;39.97;;;17.30;;
35795;SDS011;21916;52.428;13.302;2022-12-19T09:10:57;36.80;;;16.52;;
35795;SDS011;21916;52.428;13.302;2022-12-19T09:13:24;37.53;;;18.63;;
35795;SDS011;21916;52.428;13.302;2022-12-19T09:18:30;32.20;;;16.23;;
35795;SDS011;21916;52.428;13.302;2022-12-19T09:20:57;36.45;;;15.20;;
35795;SDS011;21916;52.428;13.302;2022-12-19T09:23:24;39.40;;;14.70;;
35795;SDS011;21916;52.428;13.302;2022-12-19T09:25:53;39.88;;;17.80;;
35795;SDS011;21916;52.428;13.302;2022-12-19T09:28:20;35.15;;;16.15;;
35795;SDS011;21916;52.428;13.302;2022-12-19T09:30:54;34.97;;;16.23;;
35795;SDS011;21916;52.428;13.302;2022-12-19T09:33:20;34.55;;;16.15;;
35795;SDS011;21916;52.428;13.302;2022-12-19T09:35:50;35.55;;;15.88;;
35795;SDS011;21916;52.428;13.302;2022-12-19T09:38:17;36.38;;;16.55;;
35795;SDS011;21916;52.428;13.302;2022-12-19T09:44:18;34.35;;;15.35;;
35795;SDS011;21916;52.428;13.302;2022-12-19T09:46:55;34.80;;;15.85;;
35795;SDS011;21916;52.428;13.302;2022-12-19T09:49:26;30.20;;;14.67;;
35795;SDS011;21916;52.428;13.302;2022-12-19T09:52:09;30.10;;;13.95;;
35795;SDS011;21916;52.428;13.302;2022-12-19T09:54:54;36.00;;;15.65;;
35795;SDS011;21916;52.428;13.302;2022-12-19T09:57:41;33.97;;;16.52;;
35795;SDS011;21916;52.428;13.302;2022-12-19T10:00:20;35.22;;;16.35;;
35795;SDS011;21916;52.428;13.302;2022-12-19T10:06:01;31.38;;;15.15;;
35795;SDS011;21916;52.428;13.302;2022-12-19T10:08:42;32.20;;;16.08;;
35795;SDS011;21916;52.428;13.302;2022-12-19T10:19:13;32.83;;;16.50;;
35795;SDS011;21916;52.428;13.302;2022-12-19T10:21:56;30.05;;;15.63;;
35795;SDS011;21916;52.428;13.302;2022-12-19T10:24:32;33.22;;;14.48;;
35795;SDS011;21916;52.428;13.302;2022-12-19T10:27:17;32.42;;;16.02;;
35795;SDS011;21916;52.428;13.302;2022-12-19T10:33:00;34.90;;;16.48;;
35795;SDS011;21916;52.428;13.302;2022-12-19T10:35:37;31.60;;;13.95;;
35795;SDS011;21916;52.428;13.302;2022-12-19T10:43:30;37.42;;;16.50;;
35795;SDS011;21916;52.428;13.302;2022-12-19T10:46:24;32.38;;;16.05;;
35795;SDS011;21916;52.428;13.302;2022-12-19T10:49:13;37.95;;;14.90;;
35795;SDS011;21916;52.428;13.302;2022-12-19T10:52:01;33.60;;;16.35;;
35795;SDS011;21916;52.428;13.302;2022-12-19T10:59:55;33.53;;;15.43;;
35795;SDS011;21916;52.428;13.302;2022-12-19T11:02:33;34.53;;;16.40;;
35795;SDS011;21916;52.428;13.302;2022-12-19T11:05:03;31.77;;;14.20;;
35795;SDS011;21916;52.428;13.302;2022-12-19T11:07:43;36.15;;;15.60;;
35795;SDS011;21916;52.428;13.302;2022-12-19T11:10:43;29.83;;;14.88;;
35795;SDS011;21916;52.428;13.302;2022-12-19T11:15:48;34.35;;;15.05;;
35795;SDS011;21916;52.428;13.302;2022-12-19T11:18:16;32.38;;;15.32;;
35795;SDS011;21916;52.428;13.302;2022-12-19T11:20:52;31.08;;;14.60;;
35795;SDS011;21916;52.428;13.302;2022-12-19T11:23:24;36.37;;;14.90;;
35795;SDS011;21916;52.428;13.302;2022-12-19T11:25:57;29.63;;;14.57;;
35795;SDS011;21916;52.428;13.302;2022-12-19T11:28:30;30.13;;;14.75;;
35795;SDS011;21916;52.428;13.302;2022-12-19T11:33:46;32.80;;;14.90;;
35795;SDS011;21916;52.428;13.302;2022-12-19T11:36:29;34.38;;;15.98;;
35795;SDS011;21916;52.428;13.302;2022-12-19T11:39:17;32.65;;;13.63;;
35795;SDS011;21916;52.428;13.302;2022-12-19T11:42:33;29.02;;;14.60;;
35795;SDS011;21916;52.428;13.302;2022-12-19T11:44:56;31.98;;;15.10;;
35795;SDS011;21916;52.428;13.302;2022-12-19T11:50:23;31.45;;;15.90;;
35795;SDS011;21916;52.428;13.302;2022-12-19T11:52:54;27.20;;;13.60;;
35795;SDS011;21916;52.428;13.302;2022-12-19T11:55:44;31.60;;;14.63;;
35795;SDS011;21916;52.428;13.302;2022-12-19T11:58:11;33.05;;;14.25;;
35795;SDS011;21916;52.428;13.302;2022-12-19T12:00:59;35.35;;;14.25;;
35795;SDS011;21916;52.428;13.302;2022-12-19T12:06:11;29.52;;;14.10;;
35795;SDS011;21916;52.428;13.302;2022-12-19T12:08:45;29.38;;;14.07;;
35795;SDS011;21916;52.428;13.302;2022-12-19T12:11:25;29.35;;;14.50;;
35795;SDS011;21916;52.428;13.302;2022-12-19T12:14:05;33.78;;;15.65;;
35795;SDS011;21916;52.428;13.302;2022-12-19T12:28:07;37.55;;;16.10;;
35795;SDS011;21916;52.428;13.302;2022-12-19T12:30:39;39.05;;;17.60;;
35795;SDS011;21916;52.428;13.302;2022-12-19T12:36:15;36.67;;;15.48;;
35795;SDS011;21916;52.428;13.302;2022-12-19T12:39:03;41.83;;;18.05;;
35795;SDS011;21916;52.428;13.302;2022-12-19T12:44:33;38.70;;;15.90;;
35795;SDS011;21916;52.428;13.302;2022-12-19T12:47:43;33.65;;;16.05;;
35795;SDS011;21916;52.428;13.302;2022-12-19T12:49:57;27.40;;;13.85;;
35795;SDS011;21916;52.428;13.302;2022-12-19T12:52:29;34.90;;;17.63;;
35795;SDS011;21916;52.428;13.302;2022-12-19T12:55:38;36.42;;;15.10;;
35795;SDS011;21916;52.428;13.302;2022-12-19T13:01:24;35.97;;;17.27;;
35795;SDS011;21916;52.428;13.302;2022-12-19T13:03:55;37.20;;;18.13;;
35795;SDS011;21916;52.428;13.302;2022-12-19T13:06:36;39.22;;;17.33;;
35795;SDS011;21916;52.428;13.302;2022-12-19T13:11:39;37.25;;;17.73;;
35795;SDS011;21916;52.428;13.302;2022-12-19T13:17:07;40.50;;;18.90;;
35795;SDS011;21916;52.428;13.302;2022-12-19T13:20:30;37.85;;;17.73;;
35795;SDS011;21916;52.428;13.302;2022-12-19T13:23:04;36.15;;;17.50;;
35795;SDS011;21916;52.428;13.302;2022-12-19T13:28:13;39.28;;;19.02;;
35795;SDS011;21916;52.428;13.302;2022-12-19T13:41:57;40.75;;;18.27;;
35795;SDS011;21916;52.428;13.302;2022-12-19T13:44:49;42.85;;;20.02;;
35795;SDS011;21916;52.428;13.302;2022-12-19T13:47:16;40.13;;;18.33;;
35795;SDS011;21916;52.428;13.302;2022-12-19T13:49:44;40.08;;;19.40;;
35795;SDS011;21916;52.428;13.302;2022-12-19T13:52:10;46.22;;;18.30;;
35795;SDS011;21916;52.428;13.302;2022-12-19T13:54:44;40.22;;;19.20;;
35795;SDS011;21916;52.428;13.302;2022-12-19T13:57:25;41.42;;;18.92;;
35795;SDS011;21916;52.428;13.302;2022-12-19T13:59:54;44.55;;;20.50;;
35795;SDS011;21916;52.428;13.302;2022-12-19T14:02:33;46.20;;;19.17;;
35795;SDS011;21916;52.428;13.302;2022-12-19T14:05:03;43.42;;;19.83;;
35795;SDS011;21916;52.428;13.302;2022-12-19T14:10:06;42.67;;;20.40;;
35795;SDS011;21916;52.428;13.302;2022-12-19T14:12:43;41.55;;;21.65;;
35795;SDS011;21916;52.428;13.302;2022-12-19T14:15:32;43.00;;;19.85;;
35795;SDS011;21916;52.428;13.302;2022-12-19T14:18:20;47.47;;;20.90;;
35795;SDS011;21916;52.428;13.302;2022-12-19T14:20:49;47.38;;;20.73;;
35795;SDS011;21916;52.428;13.302;2022-12-19T14:23:31;47.25;;;22.08;;
35795;SDS011;21916;52.428;13.302;2022-12-19T14:25:58;47.25;;;21.02;;
35795;SDS011;21916;52.428;13.302;2022-12-19T14:28:27;52.78;;;23.98;;
35795;SDS011;21916;52.428;13.302;2022-12-19T14:31:15;44.67;;;21.98;;
35795;SDS011;21916;52.428;13.302;2022-12-19T14:33:47;46.10;;;21.20;;
35795;SDS011;21916;52.428;13.302;2022-12-19T14:36:22;46.80;;;21.48;;
35795;SDS011;21916;52.428;13.302;2022-12-19T14:38:54;49.90;;;20.25;;
35795;SDS011;21916;52.428;13.302;2022-12-19T14:44:14;44.65;;;21.67;;
35795;SDS011;21916;52.428;13.302;2022-12-19T14:46:42;60.10;;;22.42;;
35795;SDS011;21916;52.428;13.302;2022-12-19T14:49:24;50.97;;;22.38;;
35795;SDS011;21916;52.428;13.302;2022-12-19T14:51:50;48.28;;;20.92;;
35795;SDS011;21916;52.428;13.302;2022-12-19T14:54:22;44.45;;;22.55;;
35795;SDS011;21916;52.428;13.302;2022-12-19T15:04:32;49.10;;;21.30;;
35795;SDS011;21916;52.428;13.302;2022-12-19T15:07:02;49.80;;;21.63;;
35795;SDS011;21916;52.428;13.302;2022-12-19T15:09:46;46.10;;;22.17;;
35795;SDS011;21916;52.428;13.302;2022-12-19T15:12:15;47.38;;;22.10;;
35795;SDS011;21916;52.428;13.302;2022-12-19T15:15:21;50.92;;;24.63;;
35795;SDS011;21916;52.428;13.302;2022-12-19T15:17:50;49.88;;;23.73;;
35795;SDS011;21916;52.428;13.302;2022-12-19T15:20:17;43.75;;;20.80;;
35795;SDS011;21916;52.428;13.302;2022-12-19T15:22:44;52.38;;;23.83;;
35795;SDS011;21916;52.428;13.302;2022-12-19T15:25:14;50.22;;;22.92;;
35795;SDS011;21916;52.428;13.302;2022-12-19T15:27:42;44.58;;;21.63;;
35795;SDS011;21916;52.428;13.302;2022-12-19T15:30:16;48.28;;;22.30;;
35795;SDS011;21916;52.428;13.302;2022-12-19T15:32:44;46.53;;;22.25;;
35795;SDS011;21916;52.428;13.302;2022-12-19T15:35:11;55.95;;;24.08;;
35795;SDS011;21916;52.428;13.302;2022-12-19T15:37:38;46.70;;;22.13;;
35795;SDS011;21916;52.428;13.302;2022-12-19T15:40:05;50.40;;;22.23;;
35795;SDS011;21916;52.428;13.302;2022-12-19T15:42:31;44.25;;;21.98;;
35795;SDS011;21916;52.428;13.302;2022-12-19T15:44:58;53.60;;;23.95;;
35795;SDS011;21916;52.428;13.302;2022-12-19T15:47:32;50.05;;;22.67;;
35795;SDS011;21916;52.428;13.302;2022-12-19T15:50:00;48.45;;;21.67;;
35795;SDS011;21916;52.428;13.302;2022-12-19T15:52:38;47.47;;;22.30;;
35795;SDS011;21916;52.428;13.302;2022-12-19T15:55:04;46.80;;;21.95;;
35795;SDS011;21916;52.428;13.302;2022-12-19T16:00:00;45.78;;;22.60;;
35795;SDS011;21916;52.428;13.302;2022-12-19T16:02:30;47.75;;;23.20;;
35795;SDS011;21916;52.428;13.302;2022-12-19T16:04:57;42.78;;;20.60;;
35795;SDS011;21916;52.428;13.302;2022-12-19T16:07:23;49.83;;;21.17;;
35795;SDS011;21916;52.428;13.302;2022-12-19T16:09:49;48.15;;;24.45;;
35795;SDS011;21916;52.428;13.302;2022-12-19T16:15:28;51.00;;;22.33;;
35795;SDS011;21916;52.428;13.302;2022-12-19T16:17:56;52.67;;;22.73;;
35795;SDS011;21916;52.428;13.302;2022-12-19T16:20:25;49.35;;;23.63;;
35795;SDS011;21916;52.428;13.302;2022-12-19T16:22:55;46.22;;;22.30;;
35795;SDS011;21916;52.428;13.302;2022-12-19T16:25:23;44.38;;;21.83;;
35795;SDS011;21916;52.428;13.302;2022-12-19T16:27:56;47.22;;;23.20;;
35795;SDS011;21916;52.428;13.302;2022-12-19T16:30:29;48.78;;;23.15;;
35795;SDS011;21916;52.428;13.302;2022-12-19T16:32:56;46.33;;;23.13;;
35795;SDS011;21916;52.428;13.302;2022-12-19T16:35:22;50.22;;;22.48;;
35795;SDS011;21916;52.428;13.302;2022-12-19T16:37:50;55.03;;;23.70;;
35795;SDS011;21916;52.428;13.302;2022-12-19T16:40:24;49.17;;;24.23;;
35795;SDS011;21916;52.428;13.302;2022-12-19T16:42:55;47.80;;;21.80;;
35795;SDS011;21916;52.428;13.302;2022-12-19T16:45:27;52.58;;;24.25;;
35795;SDS011;21916;52.428;13.302;2022-12-19T16:47:53;47.20;;;22.52;;
35795;SDS011;21916;52.428;13.302;2022-12-19T16:50:22;46.60;;;21.60;;